sensor_id;sensor_type;location;lat;lon;timestamp;P1;durP1;ratioP1;P2;durP2;ratioP2
71665;SDS011;59503;53.486;10.196;2023-02-02T00:00:30;27.67;;;2.97;;
71665;SDS011;59503;53.486;10.196;2023-02-02T00:02:56;25.58;;;2.72;;
71665;SDS011;59503;53.486;10.196;2023-02-02T00:05:21;30.87;;;3.00;;
71665;SDS011;59503;53.486;10.196;2023-02-02T00:07:46;32.23;;;3.10;;
71665;SDS011;59503;53.486;10.196;2023-02-02T00:10:12;27.90;;;2.67;;
71665;SDS011;59503;53.486;10.196;2023-02-02T00:12:37;24.98;;;3.22;;
71665;SDS011;59503;53.486;10.196;2023-02-02T00:15:03;29.53;;;2.60;;
71665;SDS011;59503;53.486;10.196;2023-02-02T00:17:29;22.65;;;2.38;;
71665;SDS011;59503;53.486;10.196;2023-02-02T00:19:54;23.43;;;1.93;;
71665;SDS011;59503;53.486;10.196;2023-02-02T00:22:20;27.40;;;2.90;;
71665;SDS011;59503;53.486;10.196;2023-02-02T00:24:46;26.63;;;2.63;;
71665;SDS011;59503;53.486;10.196;2023-02-02T00:27:11;25.43;;;2.50;;
71665;SDS011;59503;53.486;10.196;2023-02-02T00:29:37;15.10;;;2.10;;
71665;SDS011;59503;53.486;10.196;2023-02-02T00:32:03;18.83;;;2.20;;
71665;SDS011;59503;53.486;10.196;2023-02-02T00:34:29;22.98;;;1.90;;
71665;SDS011;59503;53.486;10.196;2023-02-02T00:36:55;29.83;;;3.70;;
71665;SDS011;59503;53.486;10.196;2023-02-02T00:39:21;23.98;;;2.28;;
71665;SDS011;59503;53.486;10.196;2023-02-02T00:41:50;28.23;;;1.83;;
71665;SDS011;59503;53.486;10.196;2023-02-02T00:44:16;25.67;;;2.72;;
71665;SDS011;59503;53.486;10.196;2023-02-02T00:47:00;26.55;;;2.80;;
71665;SDS011;59503;53.486;10.196;2023-02-02T00:49:26;27.35;;;2.65;;
71665;SDS011;59503;53.486;10.196;2023-02-02T00:51:51;18.27;;;2.20;;
71665;SDS011;59503;53.486;10.196;2023-02-02T00:54:17;21.90;;;2.13;;
71665;SDS011;59503;53.486;10.196;2023-02-02T00:56:43;16.60;;;1.95;;
71665;SDS011;59503;53.486;10.196;2023-02-02T00:59:08;30.00;;;3.00;;
71665;SDS011;59503;53.486;10.196;2023-02-02T01:01:34;16.05;;;1.60;;
71665;SDS011;59503;53.486;10.196;2023-02-02T01:04:00;26.07;;;2.60;;
71665;SDS011;59503;53.486;10.196;2023-02-02T01:06:26;22.85;;;2.30;;
71665;SDS011;59503;53.486;10.196;2023-02-02T01:08:51;23.60;;;2.43;;
71665;SDS011;59503;53.486;10.196;2023-02-02T01:11:17;22.88;;;1.83;;
71665;SDS011;59503;53.486;10.196;2023-02-02T01:13:43;20.07;;;2.27;;
71665;SDS011;59503;53.486;10.196;2023-02-02T01:16:08;18.08;;;2.70;;
71665;SDS011;59503;53.486;10.196;2023-02-02T01:18:35;21.85;;;1.95;;
71665;SDS011;59503;53.486;10.196;2023-02-02T01:21:02;18.52;;;1.48;;
71665;SDS011;59503;53.486;10.196;2023-02-02T01:23:30;20.30;;;1.63;;
71665;SDS011;59503;53.486;10.196;2023-02-02T01:25:57;27.35;;;2.20;;
71665;SDS011;59503;53.486;10.196;2023-02-02T01:28:24;22.33;;;2.22;;
71665;SDS011;59503;53.486;10.196;2023-02-02T01:30:51;17.13;;;2.03;;
71665;SDS011;59503;53.486;10.196;2023-02-02T01:33:17;21.83;;;2.00;;
71665;SDS011;59503;53.486;10.196;2023-02-02T01:35:44;25.23;;;1.75;;
71665;SDS011;59503;53.486;10.196;2023-02-02T01:38:11;21.02;;;2.03;;
71665;SDS011;59503;53.486;10.196;2023-02-02T01:40:36;29.20;;;1.90;;
71665;SDS011;59503;53.486;10.196;2023-02-02T01:43:14;24.58;;;2.17;;
71665;SDS011;59503;53.486;10.196;2023-02-02T01:45:48;22.15;;;1.45;;
71665;SDS011;59503;53.486;10.196;2023-02-02T01:48:15;22.40;;;2.50;;
71665;SDS011;59503;53.486;10.196;2023-02-02T01:50:41;27.08;;;2.20;;
71665;SDS011;59503;53.486;10.196;2023-02-02T01:53:07;20.13;;;1.48;;
71665;SDS011;59503;53.486;10.196;2023-02-02T01:55:34;24.50;;;1.90;;
71665;SDS011;59503;53.486;10.196;2023-02-02T01:58:05;23.73;;;1.83;;
71665;SDS011;59503;53.486;10.196;2023-02-02T02:00:39;21.30;;;2.20;;
71665;SDS011;59503;53.486;10.196;2023-02-02T02:03:08;18.17;;;1.70;;
71665;SDS011;59503;53.486;10.196;2023-02-02T02:05:42;23.55;;;2.17;;
71665;SDS011;59503;53.486;10.196;2023-02-02T02:08:21;23.00;;;1.98;;
71665;SDS011;59503;53.486;10.196;2023-02-02T02:10:54;19.25;;;1.80;;
71665;SDS011;59503;53.486;10.196;2023-02-02T02:13:21;17.33;;;1.30;;
71665;SDS011;59503;53.486;10.196;2023-02-02T02:28:09;8.02;;;0.77;;
71665;SDS011;59503;53.486;10.196;2023-02-02T02:30:46;16.23;;;1.63;;
71665;SDS011;59503;53.486;10.196;2023-02-02T02:33:28;9.63;;;1.35;;
71665;SDS011;59503;53.486;10.196;2023-02-02T02:42:08;19.40;;;2.47;;
71665;SDS011;59503;53.486;10.196;2023-02-02T02:44:40;24.33;;;2.80;;
71665;SDS011;59503;53.486;10.196;2023-02-02T02:47:06;17.77;;;1.65;;
71665;SDS011;59503;53.486;10.196;2023-02-02T02:49:32;21.40;;;1.87;;
71665;SDS011;59503;53.486;10.196;2023-02-02T02:52:06;29.10;;;3.05;;
71665;SDS011;59503;53.486;10.196;2023-02-02T02:54:34;20.13;;;2.08;;
71665;SDS011;59503;53.486;10.196;2023-02-02T03:10:51;19.17;;;1.27;;
71665;SDS011;59503;53.486;10.196;2023-02-02T03:13:19;27.80;;;3.00;;
71665;SDS011;59503;53.486;10.196;2023-02-02T03:15:45;16.57;;;1.77;;
71665;SDS011;59503;53.486;10.196;2023-02-02T03:18:15;25.37;;;3.00;;
71665;SDS011;59503;53.486;10.196;2023-02-02T03:20:43;21.60;;;2.95;;
71665;SDS011;59503;53.486;10.196;2023-02-02T03:23:09;23.77;;;1.95;;
71665;SDS011;59503;53.486;10.196;2023-02-02T03:25:36;29.25;;;2.13;;
71665;SDS011;59503;53.486;10.196;2023-02-02T03:28:03;18.20;;;2.20;;
71665;SDS011;59503;53.486;10.196;2023-02-02T03:30:29;19.23;;;2.10;;
71665;SDS011;59503;53.486;10.196;2023-02-02T03:32:55;21.30;;;2.53;;
71665;SDS011;59503;53.486;10.196;2023-02-02T03:35:21;19.02;;;1.90;;
71665;SDS011;59503;53.486;10.196;2023-02-02T03:37:47;16.00;;;1.90;;
71665;SDS011;59503;53.486;10.196;2023-02-02T03:40:13;19.02;;;1.70;;
71665;SDS011;59503;53.486;10.196;2023-02-02T03:42:39;16.75;;;1.83;;
71665;SDS011;59503;53.486;10.196;2023-02-02T03:45:05;17.93;;;1.17;;
71665;SDS011;59503;53.486;10.196;2023-02-02T03:47:31;12.75;;;1.77;;
71665;SDS011;59503;53.486;10.196;2023-02-02T03:49:57;13.20;;;1.38;;
71665;SDS011;59503;53.486;10.196;2023-02-02T03:52:23;25.02;;;1.77;;
71665;SDS011;59503;53.486;10.196;2023-02-02T03:54:49;16.57;;;1.47;;
71665;SDS011;59503;53.486;10.196;2023-02-02T03:57:15;20.85;;;1.77;;
71665;SDS011;59503;53.486;10.196;2023-02-02T03:59:41;15.57;;;1.45;;
71665;SDS011;59503;53.486;10.196;2023-02-02T04:02:06;19.17;;;2.20;;
71665;SDS011;59503;53.486;10.196;2023-02-02T04:04:32;23.60;;;1.35;;
71665;SDS011;59503;53.486;10.196;2023-02-02T04:06:58;18.97;;;1.93;;
71665;SDS011;59503;53.486;10.196;2023-02-02T04:09:23;10.90;;;1.23;;
71665;SDS011;59503;53.486;10.196;2023-02-02T04:11:49;18.05;;;1.63;;
71665;SDS011;59503;53.486;10.196;2023-02-02T04:14:15;12.13;;;1.77;;
71665;SDS011;59503;53.486;10.196;2023-02-02T04:16:40;12.20;;;1.20;;
71665;SDS011;59503;53.486;10.196;2023-02-02T04:19:06;13.33;;;1.40;;
71665;SDS011;59503;53.486;10.196;2023-02-02T04:21:32;12.63;;;1.13;;
71665;SDS011;59503;53.486;10.196;2023-02-02T04:23:58;16.83;;;1.30;;
71665;SDS011;59503;53.486;10.196;2023-02-02T04:26:23;16.73;;;1.27;;
71665;SDS011;59503;53.486;10.196;2023-02-02T04:28:50;20.98;;;1.27;;
71665;SDS011;59503;53.486;10.196;2023-02-02T04:31:16;12.43;;;1.02;;
71665;SDS011;59503;53.486;10.196;2023-02-02T04:33:42;11.43;;;0.80;;
71665;SDS011;59503;53.486;10.196;2023-02-02T04:36:07;12.80;;;1.47;;
71665;SDS011;59503;53.486;10.196;2023-02-02T04:38:34;8.70;;;1.23;;
71665;SDS011;59503;53.486;10.196;2023-02-02T04:41:06;13.60;;;1.20;;
71665;SDS011;59503;53.486;10.196;2023-02-02T04:43:33;13.70;;;1.33;;
71665;SDS011;59503;53.486;10.196;2023-02-02T04:45:59;9.90;;;1.20;;
71665;SDS011;59503;53.486;10.196;2023-02-02T04:48:25;14.18;;;2.05;;
71665;SDS011;59503;53.486;10.196;2023-02-02T04:50:56;15.83;;;1.23;;
71665;SDS011;59503;53.486;10.196;2023-02-02T04:53:24;14.18;;;1.05;;
71665;SDS011;59503;53.486;10.196;2023-02-02T04:55:49;10.23;;;0.87;;
71665;SDS011;59503;53.486;10.196;2023-02-02T04:58:15;13.55;;;0.70;;
71665;SDS011;59503;53.486;10.196;2023-02-02T05:00:40;6.07;;;0.50;;
71665;SDS011;59503;53.486;10.196;2023-02-02T05:03:06;8.53;;;0.50;;
71665;SDS011;59503;53.486;10.196;2023-02-02T05:05:31;11.68;;;1.00;;
71665;SDS011;59503;53.486;10.196;2023-02-02T05:07:57;12.93;;;1.83;;
71665;SDS011;59503;53.486;10.196;2023-02-02T05:10:24;18.42;;;1.58;;
71665;SDS011;59503;53.486;10.196;2023-02-02T05:12:51;12.50;;;1.23;;
71665;SDS011;59503;53.486;10.196;2023-02-02T05:15:17;24.58;;;1.60;;
71665;SDS011;59503;53.486;10.196;2023-02-02T05:17:45;17.63;;;2.03;;
71665;SDS011;59503;53.486;10.196;2023-02-02T05:20:12;21.98;;;1.90;;
71665;SDS011;59503;53.486;10.196;2023-02-02T05:22:37;20.40;;;1.20;;
71665;SDS011;59503;53.486;10.196;2023-02-02T05:25:03;13.32;;;1.10;;
71665;SDS011;59503;53.486;10.196;2023-02-02T05:27:29;16.80;;;1.40;;
71665;SDS011;59503;53.486;10.196;2023-02-02T05:29:55;16.95;;;2.28;;
71665;SDS011;59503;53.486;10.196;2023-02-02T05:32:20;21.43;;;1.87;;
71665;SDS011;59503;53.486;10.196;2023-02-02T05:34:46;20.53;;;1.53;;
71665;SDS011;59503;53.486;10.196;2023-02-02T05:37:12;17.55;;;1.95;;
71665;SDS011;59503;53.486;10.196;2023-02-02T05:39:37;14.43;;;2.03;;
71665;SDS011;59503;53.486;10.196;2023-02-02T05:42:02;16.85;;;1.50;;
71665;SDS011;59503;53.486;10.196;2023-02-02T05:44:28;8.40;;;0.67;;
71665;SDS011;59503;53.486;10.196;2023-02-02T05:46:53;10.17;;;0.70;;
71665;SDS011;59503;53.486;10.196;2023-02-02T05:49:19;10.67;;;0.80;;
71665;SDS011;59503;53.486;10.196;2023-02-02T05:51:45;9.95;;;0.70;;
71665;SDS011;59503;53.486;10.196;2023-02-02T05:54:12;7.67;;;0.80;;
71665;SDS011;59503;53.486;10.196;2023-02-02T05:56:43;10.52;;;1.08;;
71665;SDS011;59503;53.486;10.196;2023-02-02T05:59:09;10.07;;;0.65;;
71665;SDS011;59503;53.486;10.196;2023-02-02T06:01:34;12.33;;;0.87;;
71665;SDS011;59503;53.486;10.196;2023-02-02T06:04:00;16.80;;;1.52;;
71665;SDS011;59503;53.486;10.196;2023-02-02T06:06:25;14.73;;;1.30;;
71665;SDS011;59503;53.486;10.196;2023-02-02T06:08:51;23.17;;;2.60;;
71665;SDS011;59503;53.486;10.196;2023-02-02T06:11:17;25.05;;;2.72;;
71665;SDS011;59503;53.486;10.196;2023-02-02T06:13:43;17.50;;;1.90;;
71665;SDS011;59503;53.486;10.196;2023-02-02T06:16:09;22.52;;;2.55;;
71665;SDS011;59503;53.486;10.196;2023-02-02T06:18:35;21.02;;;3.53;;
71665;SDS011;59503;53.486;10.196;2023-02-02T06:21:02;23.10;;;1.90;;
71665;SDS011;59503;53.486;10.196;2023-02-02T06:23:30;28.55;;;2.60;;
71665;SDS011;59503;53.486;10.196;2023-02-02T06:25:56;21.92;;;1.77;;
71665;SDS011;59503;53.486;10.196;2023-02-02T06:28:22;22.67;;;2.73;;
71665;SDS011;59503;53.486;10.196;2023-02-02T06:30:47;32.13;;;3.43;;
71665;SDS011;59503;53.486;10.196;2023-02-02T06:33:12;22.27;;;2.17;;
71665;SDS011;59503;53.486;10.196;2023-02-02T06:35:38;29.30;;;3.60;;
71665;SDS011;59503;53.486;10.196;2023-02-02T06:38:03;24.98;;;2.42;;
71665;SDS011;59503;53.486;10.196;2023-02-02T06:40:29;22.77;;;2.47;;
71665;SDS011;59503;53.486;10.196;2023-02-02T06:42:58;22.27;;;2.57;;
71665;SDS011;59503;53.486;10.196;2023-02-02T06:45:25;29.90;;;2.88;;
71665;SDS011;59503;53.486;10.196;2023-02-02T06:47:51;34.80;;;2.80;;
71665;SDS011;59503;53.486;10.196;2023-02-02T06:50:18;21.05;;;3.28;;
71665;SDS011;59503;53.486;10.196;2023-02-02T06:52:47;35.57;;;2.93;;
71665;SDS011;59503;53.486;10.196;2023-02-02T06:55:16;35.95;;;2.10;;
71665;SDS011;59503;53.486;10.196;2023-02-02T06:57:42;27.83;;;2.90;;
71665;SDS011;59503;53.486;10.196;2023-02-02T07:00:08;38.97;;;3.37;;
71665;SDS011;59503;53.486;10.196;2023-02-02T07:02:34;38.03;;;3.13;;
71665;SDS011;59503;53.486;10.196;2023-02-02T07:05:00;25.20;;;2.00;;
71665;SDS011;59503;53.486;10.196;2023-02-02T07:07:26;26.57;;;2.00;;
71665;SDS011;59503;53.486;10.196;2023-02-02T07:09:52;30.58;;;2.70;;
71665;SDS011;59503;53.486;10.196;2023-02-02T07:12:17;29.83;;;2.43;;
71665;SDS011;59503;53.486;10.196;2023-02-02T07:14:43;21.48;;;2.63;;
71665;SDS011;59503;53.486;10.196;2023-02-02T07:17:09;23.80;;;1.98;;
71665;SDS011;59503;53.486;10.196;2023-02-02T07:19:35;22.48;;;1.95;;
71665;SDS011;59503;53.486;10.196;2023-02-02T07:22:01;24.13;;;2.07;;
71665;SDS011;59503;53.486;10.196;2023-02-02T07:24:26;19.17;;;1.67;;
71665;SDS011;59503;53.486;10.196;2023-02-02T07:26:52;23.25;;;2.13;;
71665;SDS011;59503;53.486;10.196;2023-02-02T07:29:18;19.33;;;1.80;;
71665;SDS011;59503;53.486;10.196;2023-02-02T07:31:44;14.10;;;1.73;;
71665;SDS011;59503;53.486;10.196;2023-02-02T07:34:09;19.13;;;2.23;;
71665;SDS011;59503;53.486;10.196;2023-02-02T07:36:35;21.20;;;2.17;;
71665;SDS011;59503;53.486;10.196;2023-02-02T07:39:01;18.67;;;1.83;;
71665;SDS011;59503;53.486;10.196;2023-02-02T07:41:28;21.95;;;2.13;;
71665;SDS011;59503;53.486;10.196;2023-02-02T07:43:54;19.00;;;1.92;;
71665;SDS011;59503;53.486;10.196;2023-02-02T07:46:20;20.37;;;1.83;;
71665;SDS011;59503;53.486;10.196;2023-02-02T07:48:45;29.13;;;1.98;;
71665;SDS011;59503;53.486;10.196;2023-02-02T07:51:12;21.10;;;1.90;;
71665;SDS011;59503;53.486;10.196;2023-02-02T07:53:43;15.27;;;3.13;;
71665;SDS011;59503;53.486;10.196;2023-02-02T07:58:39;25.75;;;3.00;;
71665;SDS011;59503;53.486;10.196;2023-02-02T08:01:06;18.40;;;1.90;;
71665;SDS011;59503;53.486;10.196;2023-02-02T08:03:33;26.85;;;3.15;;
71665;SDS011;59503;53.486;10.196;2023-02-02T08:06:00;25.85;;;2.28;;
71665;SDS011;59503;53.486;10.196;2023-02-02T08:08:32;27.23;;;2.60;;
71665;SDS011;59503;53.486;10.196;2023-02-02T08:10:58;20.30;;;1.77;;
71665;SDS011;59503;53.486;10.196;2023-02-02T08:13:23;18.47;;;1.40;;
71665;SDS011;59503;53.486;10.196;2023-02-02T08:15:48;20.90;;;2.10;;
71665;SDS011;59503;53.486;10.196;2023-02-02T08:18:14;25.58;;;1.75;;
71665;SDS011;59503;53.486;10.196;2023-02-02T08:20:39;20.70;;;2.53;;
71665;SDS011;59503;53.486;10.196;2023-02-02T08:23:05;21.47;;;3.37;;
71665;SDS011;59503;53.486;10.196;2023-02-02T08:25:37;28.90;;;3.83;;
71665;SDS011;59503;53.486;10.196;2023-02-02T08:28:03;22.73;;;3.03;;
71665;SDS011;59503;53.486;10.196;2023-02-02T08:30:30;18.65;;;1.80;;
71665;SDS011;59503;53.486;10.196;2023-02-02T08:32:55;19.55;;;1.98;;
71665;SDS011;59503;53.486;10.196;2023-02-02T08:35:22;14.10;;;2.10;;
71665;SDS011;59503;53.486;10.196;2023-02-02T08:37:48;18.00;;;1.63;;
71665;SDS011;59503;53.486;10.196;2023-02-02T08:40:14;18.38;;;2.05;;
71665;SDS011;59503;53.486;10.196;2023-02-02T08:42:39;14.00;;;1.40;;
71665;SDS011;59503;53.486;10.196;2023-02-02T08:45:05;15.67;;;2.00;;
71665;SDS011;59503;53.486;10.196;2023-02-02T08:47:31;23.27;;;1.70;;
71665;SDS011;59503;53.486;10.196;2023-02-02T08:49:56;21.55;;;2.30;;
71665;SDS011;59503;53.486;10.196;2023-02-02T08:52:22;26.40;;;2.27;;
71665;SDS011;59503;53.486;10.196;2023-02-02T08:54:47;18.43;;;1.67;;
71665;SDS011;59503;53.486;10.196;2023-02-02T08:57:13;19.73;;;1.30;;
71665;SDS011;59503;53.486;10.196;2023-02-02T08:59:38;18.10;;;1.60;;
71665;SDS011;59503;53.486;10.196;2023-02-02T09:02:04;14.43;;;1.37;;
71665;SDS011;59503;53.486;10.196;2023-02-02T09:04:29;14.97;;;1.40;;
71665;SDS011;59503;53.486;10.196;2023-02-02T09:06:54;17.10;;;1.27;;
71665;SDS011;59503;53.486;10.196;2023-02-02T09:09:20;20.23;;;2.00;;
71665;SDS011;59503;53.486;10.196;2023-02-02T09:11:45;17.83;;;2.17;;
71665;SDS011;59503;53.486;10.196;2023-02-02T09:14:11;17.70;;;2.17;;
71665;SDS011;59503;53.486;10.196;2023-02-02T09:16:37;21.85;;;2.17;;
71665;SDS011;59503;53.486;10.196;2023-02-02T09:19:03;18.75;;;1.30;;
71665;SDS011;59503;53.486;10.196;2023-02-02T09:21:31;14.23;;;1.98;;
71665;SDS011;59503;53.486;10.196;2023-02-02T09:24:04;11.67;;;1.20;;
71665;SDS011;59503;53.486;10.196;2023-02-02T09:26:31;20.20;;;2.42;;
71665;SDS011;59503;53.486;10.196;2023-02-02T09:28:57;23.20;;;1.43;;
71665;SDS011;59503;53.486;10.196;2023-02-02T09:31:28;15.20;;;1.37;;
71665;SDS011;59503;53.486;10.196;2023-02-02T09:34:01;12.15;;;1.50;;
71665;SDS011;59503;53.486;10.196;2023-02-02T09:36:31;13.90;;;1.42;;
71665;SDS011;59503;53.486;10.196;2023-02-02T09:38:57;22.45;;;1.67;;
71665;SDS011;59503;53.486;10.196;2023-02-02T09:52:28;10.95;;;1.52;;
71665;SDS011;59503;53.486;10.196;2023-02-02T09:54:59;20.60;;;1.85;;
71665;SDS011;59503;53.486;10.196;2023-02-02T09:57:34;13.77;;;1.20;;
71665;SDS011;59503;53.486;10.196;2023-02-02T10:00:04;8.68;;;0.88;;
71665;SDS011;59503;53.486;10.196;2023-02-02T10:02:38;12.27;;;1.70;;
71665;SDS011;59503;53.486;10.196;2023-02-02T10:05:07;16.50;;;1.35;;
71665;SDS011;59503;53.486;10.196;2023-02-02T10:07:40;12.00;;;0.88;;
71665;SDS011;59503;53.486;10.196;2023-02-02T10:16:13;7.57;;;0.90;;
71665;SDS011;59503;53.486;10.196;2023-02-02T10:21:58;12.15;;;1.63;;
71665;SDS011;59503;53.486;10.196;2023-02-02T10:24:22;6.00;;;0.80;;
71665;SDS011;59503;53.486;10.196;2023-02-02T10:26:54;14.50;;;1.33;;
71665;SDS011;59503;53.486;10.196;2023-02-02T10:40:30;10.77;;;0.90;;
71665;SDS011;59503;53.486;10.196;2023-02-02T10:49:07;13.80;;;1.50;;
71665;SDS011;59503;53.486;10.196;2023-02-02T10:51:35;12.18;;;1.10;;
71665;SDS011;59503;53.486;10.196;2023-02-02T10:54:02;11.13;;;1.08;;
71665;SDS011;59503;53.486;10.196;2023-02-02T10:56:42;7.90;;;0.83;;
71665;SDS011;59503;53.486;10.196;2023-02-02T10:59:23;9.40;;;1.38;;
71665;SDS011;59503;53.486;10.196;2023-02-02T11:01:56;6.30;;;0.82;;
71665;SDS011;59503;53.486;10.196;2023-02-02T11:04:21;20.73;;;1.67;;
71665;SDS011;59503;53.486;10.196;2023-02-02T11:07:05;6.70;;;0.80;;
71665;SDS011;59503;53.486;10.196;2023-02-02T11:09:35;13.07;;;1.13;;
71665;SDS011;59503;53.486;10.196;2023-02-02T11:12:23;7.93;;;0.63;;
71665;SDS011;59503;53.486;10.196;2023-02-02T11:17:26;10.10;;;0.60;;
71665;SDS011;59503;53.486;10.196;2023-02-02T11:19:52;5.90;;;0.55;;
71665;SDS011;59503;53.486;10.196;2023-02-02T11:25:34;9.73;;;0.70;;
71665;SDS011;59503;53.486;10.196;2023-02-02T11:27:58;10.38;;;0.90;;
71665;SDS011;59503;53.486;10.196;2023-02-02T11:30:45;6.15;;;0.70;;
71665;SDS011;59503;53.486;10.196;2023-02-02T11:36:05;9.98;;;0.88;;
71665;SDS011;59503;53.486;10.196;2023-02-02T11:38:44;6.97;;;1.03;;
71665;SDS011;59503;53.486;10.196;2023-02-02T11:41:09;8.75;;;0.90;;
71665;SDS011;59503;53.486;10.196;2023-02-02T11:48:47;10.02;;;1.05;;
71665;SDS011;59503;53.486;10.196;2023-02-02T11:51:21;6.13;;;1.35;;
71665;SDS011;59503;53.486;10.196;2023-02-02T11:53:47;15.57;;;1.20;;
71665;SDS011;59503;53.486;10.196;2023-02-02T11:56:21;10.23;;;0.80;;
71665;SDS011;59503;53.486;10.196;2023-02-02T11:58:50;9.95;;;0.80;;
71665;SDS011;59503;53.486;10.196;2023-02-02T12:01:24;9.73;;;1.27;;
71665;SDS011;59503;53.486;10.196;2023-02-02T12:04:02;8.85;;;1.00;;
71665;SDS011;59503;53.486;10.196;2023-02-02T12:06:46;8.13;;;1.38;;
71665;SDS011;59503;53.486;10.196;2023-02-02T12:09:12;7.50;;;1.83;;
71665;SDS011;59503;53.486;10.196;2023-02-02T12:11:50;10.02;;;1.50;;
71665;SDS011;59503;53.486;10.196;2023-02-02T12:17:17;13.43;;;1.80;;
71665;SDS011;59503;53.486;10.196;2023-02-02T12:28:24;5.63;;;0.73;;
71665;SDS011;59503;53.486;10.196;2023-02-02T12:33:32;8.40;;;1.48;;
71665;SDS011;59503;53.486;10.196;2023-02-02T12:38:46;9.90;;;1.00;;
71665;SDS011;59503;53.486;10.196;2023-02-02T12:41:33;6.57;;;0.80;;
71665;SDS011;59503;53.486;10.196;2023-02-02T12:54:39;5.65;;;0.85;;
71665;SDS011;59503;53.486;10.196;2023-02-02T13:11:40;8.30;;;0.57;;
71665;SDS011;59503;53.486;10.196;2023-02-02T13:14:26;5.18;;;0.60;;
71665;SDS011;59503;53.486;10.196;2023-02-02T13:17:10;7.00;;;0.77;;
71665;SDS011;59503;53.486;10.196;2023-02-02T13:19:50;5.60;;;0.82;;
71665;SDS011;59503;53.486;10.196;2023-02-02T13:22:21;6.10;;;0.63;;
71665;SDS011;59503;53.486;10.196;2023-02-02T13:24:52;4.80;;;0.70;;
71665;SDS011;59503;53.486;10.196;2023-02-02T13:27:21;6.60;;;1.25;;
71665;SDS011;59503;53.486;10.196;2023-02-02T13:32:42;5.93;;;1.05;;
71665;SDS011;59503;53.486;10.196;2023-02-02T13:35:20;9.40;;;2.05;;
71665;SDS011;59503;53.486;10.196;2023-02-02T13:37:54;7.25;;;1.38;;
71665;SDS011;59503;53.486;10.196;2023-02-02T13:45:46;7.38;;;1.35;;
71665;SDS011;59503;53.486;10.196;2023-02-02T13:48:34;6.60;;;0.88;;
71665;SDS011;59503;53.486;10.196;2023-02-02T13:56:59;8.33;;;1.50;;
71665;SDS011;59503;53.486;10.196;2023-02-02T13:59:46;10.85;;;1.25;;
71665;SDS011;59503;53.486;10.196;2023-02-02T14:02:34;10.35;;;0.88;;
71665;SDS011;59503;53.486;10.196;2023-02-02T14:05:06;4.40;;;0.90;;
71665;SDS011;59503;53.486;10.196;2023-02-02T14:07:44;3.95;;;1.02;;
71665;SDS011;59503;53.486;10.196;2023-02-02T14:12:52;5.45;;;1.17;;
71665;SDS011;59503;53.486;10.196;2023-02-02T14:15:34;9.82;;;1.30;;
71665;SDS011;59503;53.486;10.196;2023-02-02T14:18:05;6.53;;;1.15;;
71665;SDS011;59503;53.486;10.196;2023-02-02T14:20:38;5.50;;;1.10;;
71665;SDS011;59503;53.486;10.196;2023-02-02T14:26:12;9.20;;;0.90;;
71665;SDS011;59503;53.486;10.196;2023-02-02T14:28:48;3.28;;;0.82;;
71665;SDS011;59503;53.486;10.196;2023-02-02T14:34:26;9.07;;;1.15;;
71665;SDS011;59503;53.486;10.196;2023-02-02T14:39:24;9.95;;;0.85;;
71665;SDS011;59503;53.486;10.196;2023-02-02T14:42:00;6.78;;;0.93;;
71665;SDS011;59503;53.486;10.196;2023-02-02T14:45:03;7.80;;;0.68;;
71665;SDS011;59503;53.486;10.196;2023-02-02T14:47:41;7.53;;;0.70;;
71665;SDS011;59503;53.486;10.196;2023-02-02T14:50:55;6.93;;;0.90;;
71665;SDS011;59503;53.486;10.196;2023-02-02T14:53:15;4.47;;;0.60;;
71665;SDS011;59503;53.486;10.196;2023-02-02T14:55:53;9.55;;;0.77;;
71665;SDS011;59503;53.486;10.196;2023-02-02T14:58:43;9.93;;;1.10;;
71665;SDS011;59503;53.486;10.196;2023-02-02T15:14:49;7.00;;;0.95;;
71665;SDS011;59503;53.486;10.196;2023-02-02T15:20:25;3.35;;;0.45;;
71665;SDS011;59503;53.486;10.196;2023-02-02T15:34:29;4.95;;;0.90;;
71665;SDS011;59503;53.486;10.196;2023-02-02T15:36:59;8.25;;;1.20;;
71665;SDS011;59503;53.486;10.196;2023-02-02T15:39:29;4.15;;;0.93;;
71665;SDS011;59503;53.486;10.196;2023-02-02T15:41:59;9.60;;;0.90;;
71665;SDS011;59503;53.486;10.196;2023-02-02T15:44:45;8.83;;;0.83;;
71665;SDS011;59503;53.486;10.196;2023-02-02T15:47:11;5.22;;;1.00;;
71665;SDS011;59503;53.486;10.196;2023-02-02T15:49:41;7.57;;;1.17;;
71665;SDS011;59503;53.486;10.196;2023-02-02T15:52:14;9.05;;;0.90;;
71665;SDS011;59503;53.486;10.196;2023-02-02T15:54:50;5.88;;;0.82;;
71665;SDS011;59503;53.486;10.196;2023-02-02T15:57:30;3.13;;;0.50;;
71665;SDS011;59503;53.486;10.196;2023-02-02T15:59:58;5.68;;;1.40;;
71665;SDS011;59503;53.486;10.196;2023-02-02T16:02:36;7.50;;;1.13;;
71665;SDS011;59503;53.486;10.196;2023-02-02T16:05:24;6.07;;;1.02;;
71665;SDS011;59503;53.486;10.196;2023-02-02T16:08:02;7.95;;;1.00;;
71665;SDS011;59503;53.486;10.196;2023-02-02T16:10:32;5.25;;;1.00;;
71665;SDS011;59503;53.486;10.196;2023-02-02T16:12:59;5.20;;;0.80;;
71665;SDS011;59503;53.486;10.196;2023-02-02T16:15:26;6.57;;;0.77;;
71665;SDS011;59503;53.486;10.196;2023-02-02T16:18:03;4.32;;;0.73;;
71665;SDS011;59503;53.486;10.196;2023-02-02T16:20:35;7.20;;;0.87;;
71665;SDS011;59503;53.486;10.196;2023-02-02T16:23:02;5.43;;;0.98;;
71665;SDS011;59503;53.486;10.196;2023-02-02T16:25:32;5.72;;;1.08;;
71665;SDS011;59503;53.486;10.196;2023-02-02T16:28:03;2.42;;;0.68;;
71665;SDS011;59503;53.486;10.196;2023-02-02T16:30:30;5.45;;;0.98;;
71665;SDS011;59503;53.486;10.196;2023-02-02T16:33:24;4.93;;;0.80;;
71665;SDS011;59503;53.486;10.196;2023-02-02T16:35:57;4.45;;;0.98;;
71665;SDS011;59503;53.486;10.196;2023-02-02T16:38:35;5.87;;;0.80;;
71665;SDS011;59503;53.486;10.196;2023-02-02T16:41:08;7.55;;;1.50;;
71665;SDS011;59503;53.486;10.196;2023-02-02T16:43:36;4.32;;;1.10;;
71665;SDS011;59503;53.486;10.196;2023-02-02T16:46:13;7.13;;;1.42;;
71665;SDS011;59503;53.486;10.196;2023-02-02T16:48:42;5.28;;;1.38;;
71665;SDS011;59503;53.486;10.196;2023-02-02T16:54:27;11.85;;;3.08;;
71665;SDS011;59503;53.486;10.196;2023-02-02T16:56:35;13.90;;;2.80;;
71665;SDS011;59503;53.486;10.196;2023-02-02T16:59:44;13.38;;;3.33;;
71665;SDS011;59503;53.486;10.196;2023-02-02T17:01:58;10.15;;;3.53;;
71665;SDS011;59503;53.486;10.196;2023-02-02T17:04:28;18.73;;;4.07;;
71665;SDS011;59503;53.486;10.196;2023-02-02T17:07:04;13.90;;;4.28;;
71665;SDS011;59503;53.486;10.196;2023-02-02T17:09:35;15.57;;;3.88;;
71665;SDS011;59503;53.486;10.196;2023-02-02T17:12:03;13.70;;;4.18;;
71665;SDS011;59503;53.486;10.196;2023-02-02T17:14:55;21.45;;;5.75;;
71665;SDS011;59503;53.486;10.196;2023-02-02T17:17:25;15.20;;;5.00;;
71665;SDS011;59503;53.486;10.196;2023-02-02T17:19:51;10.65;;;3.35;;
71665;SDS011;59503;53.486;10.196;2023-02-02T17:22:18;7.90;;;3.05;;
71665;SDS011;59503;53.486;10.196;2023-02-02T17:24:47;13.18;;;3.30;;
71665;SDS011;59503;53.486;10.196;2023-02-02T17:27:36;10.77;;;3.85;;
71665;SDS011;59503;53.486;10.196;2023-02-02T17:30:00;13.40;;;4.50;;
71665;SDS011;59503;53.486;10.196;2023-02-02T17:32:28;12.98;;;4.75;;
71665;SDS011;59503;53.486;10.196;2023-02-02T17:34:53;17.15;;;4.78;;
71665;SDS011;59503;53.486;10.196;2023-02-02T17:37:19;10.07;;;3.83;;
71665;SDS011;59503;53.486;10.196;2023-02-02T17:39:44;12.00;;;3.90;;
71665;SDS011;59503;53.486;10.196;2023-02-02T17:42:16;11.82;;;3.63;;